Time;durP1;ratioP1;P1;durP2;ratioP2;P2;SDS_P1;SDS_P2;PMS_P1;PMS_P2;Temp;Humidity;BMP_temperature;BMP_pressure;BME280_temperature;BME280_humidity;BME280_pressure;Samples;Min_cycle;Max_cycle;Signal;HPM_P1;HPM_P2
2021/04/24 00:00:52;;;;;;;22.20;7.00;;;;;;;3.86;77.70;102081.19;5035096;28;20033;-80
2021/04/24 00:03:18;;;;;;;15.43;6.22;;;;;;;3.82;77.38;102079.53;5037008;28;20057;-79
2021/04/24 00:05:45;;;;;;;19.20;7.63;;;;;;;3.77;77.63;102085.06;5036463;28;20042;-80
2021/04/24 00:08:12;;;;;;;21.35;7.35;;;;;;;3.78;76.92;102080.59;5035168;28;20036;-80
2021/04/24 00:10:40;;;;;;;22.00;6.78;;;;;;;3.78;76.56;102080.59;5034563;28;20067;-80
2021/04/24 00:13:08;;;;;;;22.95;7.93;;;;;;;3.75;76.88;102078.06;5035030;28;20029;-80
2021/04/24 00:15:34;;;;;;;19.15;7.82;;;;;;;3.66;77.22;102082.78;5034914;28;20037;-80
2021/04/24 00:17:59;;;;;;;20.42;8.15;;;;;;;3.72;76.33;102078.16;5039351;28;20049;-80
2021/04/24 00:20:25;;;;;;;21.90;7.10;;;;;;;3.64;76.79;102073.13;5037330;28;20401;-80
2021/04/24 00:22:52;;;;;;;27.90;8.20;;;;;;;3.61;76.92;102084.78;5036728;28;20056;-80
2021/04/24 00:25:18;;;;;;;16.17;6.30;;;;;;;3.62;76.79;102069.69;5017616;28;20056;-79
2021/04/24 00:27:44;;;;;;;27.27;8.23;;;;;;;3.54;77.04;102069.09;5029126;28;20568;-80
2021/04/24 00:30:11;;;;;;;32.20;8.63;;;;;;;3.50;77.26;102072.81;5034958;28;20037;-80
2021/04/24 00:32:37;;;;;;;21.17;7.43;;;;;;;3.43;77.00;102072.16;5029059;28;20033;-80
2021/04/24 00:35:04;;;;;;;24.30;7.20;;;;;;;3.46;77.25;102072.06;5033629;28;20044;-79
2021/04/24 00:37:29;;;;;;;17.85;6.50;;;;;;;3.48;77.34;102066.66;5035125;28;20026;-80
2021/04/24 00:39:55;;;;;;;28.67;7.65;;;;;;;3.45;77.22;102067.63;5017055;28;20124;-80
2021/04/24 00:42:21;;;;;;;26.05;8.82;;;;;;;3.46;77.81;102064.09;5016827;28;20025;-79
2021/04/24 00:44:51;;;;;;;25.30;8.52;;;;;;;3.40;77.18;102051.88;5037820;28;20056;-79
2021/04/24 00:47:21;;;;;;;21.20;6.88;;;;;;;3.40;77.80;102057.19;5033814;28;20051;-79
2021/04/24 00:49:47;;;;;;;19.63;6.82;;;;;;;3.40;77.69;102061.66;5033659;28;20037;-80
2021/04/24 00:52:13;;;;;;;27.23;7.60;;;;;;;3.43;77.93;102049.09;5024190;28;20075;-80
2021/04/24 00:54:38;;;;;;;27.38;7.15;;;;;;;3.36;77.94;102047.56;5032289;28;20038;-79
2021/04/24 00:57:06;;;;;;;28.20;7.40;;;;;;;3.31;78.58;102048.69;5032860;28;20049;-79
2021/04/24 00:59:33;;;;;;;29.63;6.63;;;;;;;3.31;78.45;102052.22;5032917;28;20030;-79
2021/04/24 01:01:58;;;;;;;22.55;6.65;;;;;;;3.36;78.18;102052.03;5032365;28;20080;-79
2021/04/24 01:04:24;;;;;;;25.02;7.53;;;;;;;3.42;78.52;102047.34;5032986;28;20112;-79
2021/04/24 01:06:49;;;;;;;24.50;5.97;;;;;;;3.40;78.97;102051.88;5037006;28;20096;-80
2021/04/24 01:09:15;;;;;;;25.35;7.63;;;;;;;3.36;78.69;102052.91;5035308;28;20463;-80
2021/04/24 01:11:41;;;;;;;32.80;6.78;;;;;;;3.43;79.02;102056.22;5038069;28;20524;-80
2021/04/24 01:14:06;;;;;;;21.95;7.18;;;;;;;3.37;79.07;102046.66;5039142;28;20033;-80
2021/04/24 01:16:32;;;;;;;27.35;6.57;;;;;;;3.37;78.81;102041.34;5037027;28;20033;-80
2021/04/24 01:18:57;;;;;;;27.35;8.45;;;;;;;3.38;79.08;102048.41;5035363;28;20098;-80
2021/04/24 01:21:24;;;;;;;29.45;6.95;;;;;;;3.28;79.67;102048.81;5052646;28;20029;-80
2021/04/24 01:23:50;;;;;;;21.88;6.38;;;;;;;3.22;79.52;102036.59;5022773;28;20068;-80
2021/04/24 01:26:16;;;;;;;26.13;5.72;;;;;;;3.25;79.60;102036.50;5019113;28;20611;-80
2021/04/24 01:28:42;;;;;;;23.65;6.20;;;;;;;3.17;80.23;102034.09;5038696;28;20037;-80
2021/04/24 01:31:07;;;;;;;28.25;6.80;;;;;;;3.13;80.28;102035.16;5024729;28;20033;-80
2021/04/24 01:33:32;;;;;;;23.65;6.93;;;;;;;3.11;80.60;102036.13;5039286;28;20033;-80
2021/04/24 01:35:58;;;;;;;29.15;6.53;;;;;;;3.07;80.79;102048.66;5038369;28;20030;-80
2021/04/24 01:38:24;;;;;;;23.25;5.57;;;;;;;3.02;81.41;102036.47;5020236;28;20033;-80
2021/04/24 01:40:49;;;;;;;35.47;6.00;;;;;;;3.11;81.33;102036.97;5015540;28;20033;-80
2021/04/24 01:43:14;;;;;;;23.20;6.05;;;;;;;3.07;81.35;102032.72;4999490;28;20029;-80
2021/04/24 01:45:40;;;;;;;31.95;6.95;;;;;;;3.03;81.58;102033.75;4999261;28;20794;-80
2021/04/24 01:48:07;;;;;;;29.23;6.63;;;;;;;2.98;82.43;102027.72;4999484;28;20038;-80
2021/04/24 01:50:37;;;;;;;26.00;7.35;;;;;;;3.05;82.18;102031.91;5034011;28;20025;-80
2021/04/24 01:53:06;;;;;;;35.00;7.72;;;;;;;2.96;81.71;102035.75;5042157;28;20036;-79
2021/04/24 01:55:33;;;;;;;37.92;7.07;;;;;;;2.95;81.94;102041.13;5049691;28;20032;-79
2021/04/24 01:58:01;;;;;;;22.80;6.93;;;;;;;2.89;82.70;102046.66;5037325;28;20473;-79
2021/04/24 02:00:32;;;;;;;29.55;6.78;;;;;;;2.92;82.33;102041.25;5036261;28;20484;-79
2021/04/24 02:02:59;;;;;;;;;;;;;;;2.89;82.83;102036.03;5018738;28;20030;-78
2021/04/24 02:05:25;;;;;;;28.15;7.03;;;;;;;2.92;82.78;102035.94;5036021;28;19917;-78
2021/04/24 02:08:04;;;;;;;29.45;6.55;;;;;;;2.87;82.34;102038.72;5016898;28;20041;-79
2021/04/24 02:10:30;;;;;;;48.28;8.15;;;;;;;2.92;82.57;102036.78;5018310;28;20032;-79
2021/04/24 02:12:57;;;;;;;27.30;7.68;;;;;;;2.91;83.19;102035.06;5036471;28;20112;-78
2021/04/24 02:15:22;;;;;;;37.28;8.68;;;;;;;2.86;83.29;102026.38;5019302;28;20112;-79
2021/04/24 02:17:48;;;;;;;33.83;7.30;;;;;;;2.84;83.64;102022.03;5036037;28;20039;-79
2021/04/24 02:20:15;;;;;;;27.02;7.43;;;;;;;2.84;83.62;102022.91;5038709;28;20041;-80
2021/04/24 02:22:41;;;;;;;31.17;6.05;;;;;;;2.81;83.66;102024.81;5035771;28;20033;-79
2021/04/24 02:25:08;;;;;;;38.75;7.78;;;;;;;2.78;83.77;102027.56;5035851;28;20088;-80
2021/04/24 02:27:33;;;;;;;31.50;7.22;;;;;;;2.73;84.18;102023.28;5016881;28;20037;-79
2021/04/24 02:29:58;;;;;;;30.85;7.95;;;;;;;2.70;84.47;102023.41;5035114;28;20021;-79
2021/04/24 02:32:28;;;;;;;41.75;7.10;;;;;;;2.71;84.88;102024.25;5016922;28;20052;-79
2021/04/24 02:34:54;;;;;;;39.53;7.90;;;;;;;2.64;85.26;102033.38;5035329;28;20075;-79
2021/04/24 02:37:19;;;;;;;37.58;6.28;;;;;;;2.75;85.14;102031.19;5036484;28;20085;-78
2021/04/24 02:39:48;;;;;;;44.88;7.85;;;;;;;2.84;85.06;102036.19;5017880;28;20033;-79
2021/04/24 02:42:17;;;;;;;35.00;6.53;;;;;;;2.93;84.79;102040.31;5036845;28;20489;-78
2021/04/24 02:44:42;;;;;;;35.17;5.43;;;;;;;2.82;84.46;102046.03;5035096;28;20033;-79
2021/04/24 02:47:09;;;;;;;34.58;6.22;;;;;;;2.84;84.50;102044.16;5035627;28;20468;-79
2021/04/24 02:49:34;;;;;;;29.92;6.10;;;;;;;2.75;84.69;102050.69;5036693;28;20057;-78
2021/04/24 02:52:01;;;;;;;35.70;8.23;;;;;;;2.71;84.77;102051.69;5036716;28;20025;-80
2021/04/24 02:54:27;;;;;;;43.75;7.95;;;;;;;2.71;84.99;102054.34;5017561;28;20030;-79
2021/04/24 02:56:52;;;;;;;37.38;7.30;;;;;;;2.71;85.04;102049.03;5035593;28;20033;-80
2021/04/24 02:59:18;;;;;;;44.20;8.05;;;;;;;2.66;85.90;102056.31;5035047;28;20084;-80
2021/04/24 03:01:45;;;;;;;34.17;7.28;;;;;;;2.69;85.00;102053.56;5034052;28;20106;-80
2021/04/24 03:04:11;;;;;;;36.28;6.55;;;;;;;2.72;84.62;102052.56;5036158;28;20118;-80
2021/04/24 03:06:37;;;;;;;42.92;6.28;;;;;;;2.64;85.23;102052.84;5035142;28;20040;-80
2021/04/24 03:09:03;;;;;;;38.05;7.82;;;;;;;2.64;84.74;102046.66;5034859;28;20029;-80
2021/04/24 03:11:29;;;;;;;41.08;7.53;;;;;;;2.57;85.09;102053.06;5032578;28;20025;-80
2021/04/24 03:13:55;;;;;;;40.33;7.40;;;;;;;2.51;85.34;102051.50;5017321;28;20463;-80
2021/04/24 03:16:21;;;;;;;36.38;6.50;;;;;;;2.52;84.99;102053.25;5034103;28;20056;-80
2021/04/24 03:18:46;;;;;;;34.97;7.25;;;;;;;2.47;85.03;102050.72;5038197;28;20043;-79
2021/04/24 03:21:12;;;;;;;39.53;7.18;;;;;;;2.48;85.27;102051.59;5037308;28;20029;-80
2021/04/24 03:23:37;;;;;;;34.22;6.57;;;;;;;2.44;85.23;102055.28;5035106;28;20097;-80
2021/04/24 03:26:03;;;;;;;39.80;7.93;;;;;;;2.40;84.85;102059.84;5016308;28;20481;-79
2021/04/24 03:28:28;;;;;;;43.45;8.07;;;;;;;2.37;84.72;102059.06;5033771;28;20025;-80
2021/04/24 03:30:54;;;;;;;42.63;7.18;;;;;;;2.29;85.29;102062.81;5034857;28;20124;-79
2021/04/24 03:33:19;;;;;;;29.13;6.80;;;;;;;2.26;84.88;102070.88;5035160;28;20528;-79
2021/04/24 03:35:44;;;;;;;38.38;6.63;;;;;;;2.28;84.34;102055.78;5036394;28;20481;-79
2021/04/24 03:38:10;;;;;;;30.17;5.85;;;;;;;2.25;84.66;102063.84;5035880;28;20432;-79
2021/04/24 03:40:35;;;;;;;40.97;6.85;;;;;;;2.24;84.52;102066.56;5033933;28;20033;-79
2021/04/24 03:43:01;;;;;;;35.10;7.30;;;;;;;2.24;84.35;102055.97;5033106;28;20029;-78
2021/04/24 03:45:26;;;;;;;36.47;6.43;;;;;;;2.21;84.05;102056.06;5034840;28;20044;-78
2021/04/24 03:47:54;;;;;;;39.60;8.05;;;;;;;2.17;84.85;102065.00;5035419;28;20535;-78
2021/04/24 03:50:22;;;;;;;25.80;6.22;;;;;;;2.09;83.93;102059.97;5034922;28;20167;-79
2021/04/24 03:52:48;;;;;;;42.30;8.00;;;;;;;2.12;83.85;102062.53;5034331;28;20136;-79
2021/04/24 03:55:14;;;;;;;35.15;7.25;;;;;;;2.06;84.28;102074.19;5033593;28;20067;-78
2021/04/24 03:57:41;;;;;;;24.80;6.53;;;;;;;2.06;83.99;102065.38;5033287;28;20036;-78
2021/04/24 04:00:08;;;;;;;28.45;6.55;;;;;;;2.02;83.86;102074.31;5035052;28;20465;-78
2021/04/24 04:02:50;;;;;;;30.48;6.15;;;;;;;2.01;84.11;102077.91;5033878;28;20483;-79
2021/04/24 04:05:18;;;;;;;35.53;6.47;;;;;;;2.01;83.88;102077.91;5015860;28;20536;-79
2021/04/24 04:07:45;;;;;;;33.38;6.75;;;;;;;2.02;84.01;102076.97;5013995;28;20547;-78
2021/04/24 04:10:15;;;;;;;28.70;7.03;;;;;;;1.98;83.99;102081.53;5047424;28;20025;-79
2021/04/24 04:12:40;;;;;;;38.13;8.43;;;;;;;1.95;84.01;102078.09;5034640;28;20025;-79
2021/04/24 04:15:08;;;;;;;31.48;6.25;;;;;;;1.90;83.77;102074.72;5035082;28;20101;-79
2021/04/24 04:17:34;;;;;;;27.92;6.57;;;;;;;1.92;83.65;102079.06;5031828;28;20069;-79
2021/04/24 04:19:59;;;;;;;28.88;6.18;;;;;;;1.92;82.99;102088.81;5031186;28;20075;-79
2021/04/24 04:22:25;;;;;;;25.73;7.35;;;;;;;1.92;83.09;102084.38;5029076;28;20093;-78
2021/04/24 04:24:51;;;;;;;37.78;7.05;;;;;;;1.92;83.12;102094.13;5035186;28;20033;-78
2021/04/24 04:27:16;;;;;;;29.42;6.35;;;;;;;1.92;82.43;102099.41;5031833;28;20031;-79
2021/04/24 04:29:41;;;;;;;23.42;5.07;;;;;;;1.84;82.21;102105.84;5032843;28;20028;-79
2021/04/24 04:32:08;;;;;;;28.50;5.43;;;;;;;1.87;82.15;102096.03;5029241;28;20033;-79
2021/04/24 04:34:33;;;;;;;22.25;6.57;;;;;;;1.84;81.99;102100.53;5032215;28;20112;-79
2021/04/24 04:36:59;;;;;;;30.10;6.25;;;;;;;1.94;81.47;102093.16;5036331;28;20053;-79
2021/04/24 04:39:24;;;;;;;23.45;5.15;;;;;;;1.93;81.28;102107.34;5019123;28;20036;-79
2021/04/24 04:41:49;;;;;;;22.05;5.68;;;;;;;2.00;81.03;102100.06;5034997;28;20029;-79
2021/04/24 04:44:15;;;;;;;25.95;6.18;;;;;;;2.01;81.51;102097.34;5015350;28;20029;-79
2021/04/24 04:46:40;;;;;;;26.98;6.53;;;;;;;2.02;81.00;102101.75;5018618;28;20550;-79
2021/04/24 04:49:05;;;;;;;29.40;7.32;;;;;;;2.09;80.27;102096.25;5037374;28;20493;-79
2021/04/24 04:51:31;;;;;;;27.27;5.65;;;;;;;2.14;79.75;102104.94;5036613;28;20071;-79
2021/04/24 04:53:56;;;;;;;24.13;4.97;;;;;;;2.17;79.27;102108.34;5036078;28;20022;-79
2021/04/24 04:56:21;;;;;;;19.90;4.78;;;;;;;2.21;77.82;102102.03;5035697;28;20485;-79
2021/04/24 04:58:47;;;;;;;20.63;4.90;;;;;;;2.26;77.68;102112.50;5018160;28;20035;-79
2021/04/24 05:01:12;;;;;;;17.88;4.55;;;;;;;2.28;77.60;102110.66;5037730;28;20029;-80
2021/04/24 05:03:38;;;;;;;22.98;5.38;;;;;;;2.37;76.56;102118.34;5022516;28;20056;-79
2021/04/24 05:06:04;;;;;;;24.38;5.05;;;;;;;2.39;76.61;102116.53;5040963;28;20033;-79
2021/04/24 05:08:29;;;;;;;25.48;6.68;;;;;;;2.42;75.88;102123.50;5021145;28;20029;-80
2021/04/24 05:10:55;;;;;;;22.50;5.38;;;;;;;2.46;75.83;102115.38;5019434;28;20034;-80
2021/04/24 05:13:20;;;;;;;14.63;4.82;;;;;;;2.48;75.87;102115.31;5021175;28;20447;-80
2021/04/24 05:15:45;;;;;;;25.13;5.10;;;;;;;2.46;75.75;102126.00;5037395;28;20143;-80
2021/04/24 05:18:11;;;;;;;24.05;6.18;;;;;;;2.49;75.69;102122.41;5019047;28;20025;-80
2021/04/24 05:20:36;;;;;;;28.65;5.18;;;;;;;2.56;74.74;102120.41;5018064;28;20029;-80
2021/04/24 05:23:02;;;;;;;17.60;4.25;;;;;;;2.61;74.91;102126.44;5036973;28;20508;-80
2021/04/24 05:25:28;;;;;;;20.25;4.22;;;;;;;2.66;73.81;102128.03;5038623;28;20030;-79
2021/04/24 05:27:53;;;;;;;22.98;4.63;;;;;;;2.69;74.04;102130.59;5025303;28;20048;-79
2021/04/24 05:30:19;;;;;;;19.08;5.25;;;;;;;2.71;73.64;102128.72;5021699;28;20048;-80
2021/04/24 05:32:44;;;;;;;19.42;4.68;;;;;;;2.79;73.74;102130.28;5036712;28;20025;-80
2021/04/24 05:35:12;;;;;;;18.48;4.97;;;;;;;2.88;73.24;102128.16;5037140;28;20029;-79
2021/04/24 05:37:37;;;;;;;19.05;4.15;;;;;;;2.93;72.62;102131.50;5034062;28;20044;-79
2021/04/24 05:40:04;;;;;;;22.77;4.85;;;;;;;2.92;71.93;102129.78;5035797;28;20537;-80
2021/04/24 05:42:30;;;;;;;13.75;4.47;;;;;;;2.97;71.56;102134.97;5033449;28;20127;-80
2021/04/24 05:44:55;;;;;;;15.93;4.13;;;;;;;3.02;71.98;102137.44;5036914;28;20029;-80
2021/04/24 05:47:21;;;;;;;20.02;4.40;;;;;;;3.03;72.03;102128.53;5035064;28;20033;-79
2021/04/24 05:49:46;;;;;;;15.27;4.68;;;;;;;3.06;71.82;102133.75;5051791;28;20097;-78
2021/04/24 05:52:12;;;;;;;14.30;4.03;;;;;;;3.12;71.09;102133.53;5036077;28;20489;-79
2021/04/24 05:54:37;;;;;;;17.67;5.50;;;;;;;3.13;71.26;102140.59;5037743;28;20029;-79
2021/04/24 05:57:02;;;;;;;16.52;3.88;;;;;;;3.20;70.45;102139.47;5039040;28;20059;-79
2021/04/24 05:59:28;;;;;;;11.27;4.00;;;;;;;3.24;70.40;102138.41;5038203;28;20040;-79
2021/04/24 06:01:53;;;;;;;12.02;3.20;;;;;;;3.34;70.07;102139.84;5036356;28;20378;-79
2021/04/24 06:04:18;;;;;;;18.88;4.22;;;;;;;3.42;69.86;102134.25;5035994;28;20489;-79
2021/04/24 06:06:44;;;;;;;19.83;4.88;;;;;;;3.49;69.88;102143.75;5037222;28;20041;-79
2021/04/24 06:09:09;;;;;;;14.93;3.80;;;;;;;3.56;68.51;102137.28;5018729;28;20381;-79
2021/04/24 06:11:35;;;;;;;21.30;4.30;;;;;;;3.60;68.97;102143.34;5036624;28;20052;-79
2021/04/24 06:14:01;;;;;;;18.30;3.88;;;;;;;3.61;68.75;102147.72;5035974;28;20370;-79
2021/04/24 06:16:27;;;;;;;13.55;3.72;;;;;;;3.63;69.05;102149.41;5034558;28;20108;-79
2021/04/24 06:18:52;;;;;;;11.50;3.60;;;;;;;3.68;67.74;102152.78;5038812;28;20045;-79
2021/04/24 06:21:17;;;;;;;17.15;4.57;;;;;;;3.72;67.95;102150.00;5037978;28;20547;-79
2021/04/24 06:23:43;;;;;;;9.00;3.55;;;;;;;3.76;68.29;102155.13;5019656;28;20033;-79
2021/04/24 06:26:08;;;;;;;15.90;4.35;;;;;;;3.79;67.89;102156.81;5036472;28;20033;-79
2021/04/24 06:28:33;;;;;;;13.68;4.07;;;;;;;3.85;67.55;102148.59;5037830;28;20029;-79
2021/04/24 06:30:59;;;;;;;16.35;3.42;;;;;;;3.92;66.22;102150.13;5019303;28;20922;-79
2021/04/24 06:33:24;;;;;;;14.32;4.03;;;;;;;3.96;66.33;102159.72;5035650;28;20041;-79
2021/04/24 06:35:49;;;;;;;15.77;3.90;;;;;;;4.01;66.09;102155.09;5034219;28;20032;-79
2021/04/24 06:38:15;;;;;;;14.43;3.53;;;;;;;4.07;65.27;102152.22;5032235;28;20040;-79
2021/04/24 06:40:40;;;;;;;8.02;3.00;;;;;;;4.10;64.76;102149.44;5036569;28;20481;-79
2021/04/24 06:43:06;;;;;;;15.88;3.75;;;;;;;4.11;65.34;102158.28;5041246;28;20041;-79
2021/04/24 06:45:31;;;;;;;12.55;3.20;;;;;;;4.15;64.79;102149.22;5039599;28;20057;-79
2021/04/24 06:47:56;;;;;;;12.05;3.47;;;;;;;4.19;65.33;102155.31;5038217;28;20061;-79
2021/04/24 06:50:22;;;;;;;12.25;2.95;;;;;;;4.25;64.61;102150.59;5033812;28;20084;-80
2021/04/24 06:52:48;;;;;;;8.38;3.20;;;;;;;4.31;63.67;102163.66;5037422;28;20110;-79
2021/04/24 06:55:17;;;;;;;15.98;3.55;;;;;;;4.35;64.55;102159.97;5035708;28;20045;-80
2021/04/24 06:57:43;;;;;;;12.02;3.60;;;;;;;4.40;64.21;102159.78;5034144;28;20041;-80
2021/04/24 07:00:09;;;;;;;10.23;2.53;;;;;;;4.46;62.81;102164.84;5033861;28;20041;-80
2021/04/24 07:02:35;;;;;;;15.32;4.07;;;;;;;4.51;63.29;102172.69;5033986;28;20026;-80
2021/04/24 07:05:00;;;;;;;14.70;3.17;;;;;;;4.53;63.06;102163.72;5033783;28;20025;-80
2021/04/24 07:07:26;;;;;;;12.32;3.10;;;;;;;4.60;63.06;102167.84;5033276;28;20029;-80
2021/04/24 07:09:51;;;;;;;13.10;3.00;;;;;;;4.65;62.99;102164.97;5013960;28;20454;-80
2021/04/24 07:12:17;;;;;;;9.85;2.80;;;;;;;4.66;61.71;102157.88;5040502;28;20029;-80
2021/04/24 07:14:42;;;;;;;16.60;3.78;;;;;;;4.70;62.25;102171.00;5039422;28;20033;-80
2021/04/24 07:17:08;;;;;;;11.02;3.08;;;;;;;4.78;61.09;102165.38;5018227;28;20029;-80
2021/04/24 07:19:33;;;;;;;12.80;2.50;;;;;;;4.88;60.97;102171.19;5036377;28;20029;-80
2021/04/24 07:21:58;;;;;;;10.88;2.65;;;;;;;4.87;61.96;102167.66;5017632;28;20553;-80
2021/04/24 07:24:23;;;;;;;11.07;3.10;;;;;;;4.95;61.54;102172.66;5035701;28;20029;-80
2021/04/24 07:26:49;;;;;;;11.57;2.80;;;;;;;5.05;59.49;102168.66;5016814;28;20029;-79
2021/04/24 07:29:14;;;;;;;12.65;2.85;;;;;;;5.12;60.57;102170.13;5033446;28;20040;-79
2021/04/24 07:31:39;;;;;;;13.95;2.67;;;;;;;5.16;59.70;102168.22;5016322;28;20079;-79
2021/04/24 07:34:07;;;;;;;14.20;3.00;;;;;;;5.23;58.97;102169.66;5033998;28;20057;-79
2021/04/24 07:36:32;;;;;;;12.82;3.25;;;;;;;5.34;58.52;102166.56;5014632;28;20040;-79
2021/04/24 07:38:58;;;;;;;13.27;3.53;;;;;;;5.39;57.37;102172.56;5034249;28;20029;-80
2021/04/24 07:41:24;;;;;;;9.07;2.60;;;;;;;5.51;58.15;102159.53;5034072;28;20035;-79
2021/04/24 07:43:49;;;;;;;9.30;2.60;;;;;;;5.53;57.73;102165.66;5036772;28;20542;-80
2021/04/24 07:46:15;;;;;;;10.43;2.40;;;;;;;5.57;57.56;102160.19;5028462;28;20427;-79
2021/04/24 07:48:40;;;;;;;7.35;2.42;;;;;;;5.66;56.82;102162.44;5036087;28;20540;-80
2021/04/24 07:51:06;;;;;;;8.27;2.38;;;;;;;5.76;56.12;102169.09;5034754;28;20036;-79
2021/04/24 07:53:31;;;;;;;9.27;2.35;;;;;;;5.83;56.12;102167.03;5034988;28;20033;-79
2021/04/24 07:55:56;;;;;;;10.32;2.15;;;;;;;5.87;55.37;102166.78;5034918;28;20060;-79
2021/04/24 07:58:22;;;;;;;11.65;2.28;;;;;;;5.91;55.70;102163.06;5033717;28;20029;-79
2021/04/24 08:00:47;;;;;;;10.50;2.40;;;;;;;5.97;56.26;102169.97;5034240;28;20485;-79
2021/04/24 08:03:12;;;;;;;7.90;2.42;;;;;;;6.09;54.52;102171.16;5015505;28;20033;-79
2021/04/24 08:05:38;;;;;;;6.55;2.55;;;;;;;6.17;52.90;102172.56;5015326;28;20048;-79
2021/04/24 08:08:04;;;;;;;7.43;2.88;;;;;;;6.33;50.89;102171.81;5035606;28;20377;-80
2021/04/24 08:10:29;;;;;;;6.93;2.13;;;;;;;6.35;50.65;102172.63;5016900;28;20120;-80
2021/04/24 08:12:58;;;;;;;8.48;1.92;;;;;;;6.34;51.11;102177.13;5017854;28;20376;-79
2021/04/24 08:15:26;;;;;;;5.70;2.00;;;;;;;6.40;50.75;102167.94;5036948;28;20057;-80
2021/04/24 08:17:51;;;;;;;8.00;2.50;;;;;;;6.53;49.78;102174.41;5019148;28;20079;-79
2021/04/24 08:20:16;;;;;;;9.18;2.58;;;;;;;6.59;50.93;102181.28;5035750;28;20029;-79
2021/04/24 08:22:42;;;;;;;4.40;1.98;;;;;;;6.66;49.95;102175.53;5033260;28;20093;-79
2021/04/24 08:25:08;;;;;;;5.80;1.70;;;;;;;6.75;48.95;102186.72;5033666;28;20416;-78
2021/04/24 08:27:34;;;;;;;7.47;1.85;;;;;;;6.84;49.52;102186.28;5032371;28;20103;-79
2021/04/24 08:29:59;;;;;;;11.68;2.33;;;;;;;6.89;49.29;102178.91;5045505;28;20033;-79
2021/04/24 08:32:25;;;;;;;6.47;2.50;;;;;;;7.05;47.75;102187.00;5032283;28;20075;-79
2021/04/24 08:34:50;;;;;;;6.43;1.55;;;;;;;7.09;46.67;102176.06;5035156;28;20029;-79
2021/04/24 08:37:16;;;;;;;7.28;1.88;;;;;;;7.16;46.37;102189.13;5032877;28;20040;-79
2021/04/24 08:39:41;;;;;;;10.95;2.28;;;;;;;7.20;46.30;102186.22;5029766;28;20374;-79
2021/04/24 08:42:06;;;;;;;4.72;2.08;;;;;;;7.21;47.18;102187.97;5034406;28;20481;-79
2021/04/24 08:44:33;;;;;;;3.45;1.73;;;;;;;7.29;46.23;102188.44;5033798;28;20056;-79
2021/04/24 08:46:59;;;;;;;7.95;2.20;;;;;;;7.30;46.68;102183.94;5034891;28;20498;-79
2021/04/24 08:49:26;;;;;;;4.80;2.10;;;;;;;7.43;47.84;102190.38;5037926;28;20107;-79
2021/04/24 08:51:53;;;;;;;4.40;1.80;;;;;;;7.49;45.44;102187.38;5035201;28;20421;-78
2021/04/24 08:54:20;;;;;;;3.65;2.15;;;;;;;7.55;46.51;102188.88;5030628;28;20057;-79
2021/04/24 08:56:46;;;;;;;7.72;2.33;;;;;;;7.51;47.42;102195.34;5032853;28;20037;-79
2021/04/24 08:59:12;;;;;;;8.77;2.25;;;;;;;7.64;46.96;102193.75;5016491;28;20049;-79
2021/04/24 09:01:39;;;;;;;4.40;2.03;;;;;;;7.81;45.90;102196.41;5034483;28;20030;-80
2021/04/24 09:04:05;;;;;;;10.93;3.05;;;;;;;8.06;45.61;102195.09;5016334;28;20108;-79
2021/04/24 09:06:33;;;;;;;3.63;2.00;;;;;;;8.31;45.87;102201.78;5037176;28;20053;-80
2021/04/24 09:09:00;;;;;;;5.63;2.50;;;;;;;8.42;49.78;102204.75;5020606;28;20083;-79
2021/04/24 09:11:27;;;;;;;8.20;2.80;;;;;;;8.29;49.28;102204.50;5036052;28;20113;-78
2021/04/24 09:14:07;;;;;;;9.05;2.58;;;;;;;8.14;45.95;102206.25;5014908;28;20059;-78
2021/04/24 09:16:35;;;;;;;6.20;2.65;;;;;;;8.10;49.94;102203.81;5037718;28;20026;-82
2021/04/24 09:19:01;;;;;;;6.43;2.80;;;;;;;8.01;51.84;102208.72;5036373;28;20075;-79
2021/04/24 09:21:28;;;;;;;9.30;3.58;;;;;;;8.14;52.54;102210.72;5034273;28;20473;-80
2021/04/24 09:23:55;;;;;;;9.40;3.08;;;;;;;8.35;51.37;102206.00;5029303;28;20239;-80
2021/04/24 09:26:24;;;;;;;10.00;3.30;;;;;;;8.43;50.17;102209.16;5023483;28;20034;-81
2021/04/24 09:28:59;;;;;;;10.27;3.92;;;;;;;8.45;51.53;102208.13;5028672;28;20464;-80
2021/04/24 09:31:26;;;;;;;10.75;3.38;;;;;;;8.46;49.53;102211.66;5035317;28;20037;-81
2021/04/24 09:33:55;;;;;;;6.47;3.40;;;;;;;8.56;48.28;102212.88;5038322;28;20504;-80
2021/04/24 09:36:21;;;;;;;6.07;2.30;;;;;;;8.64;43.17;102210.63;5036071;28;20025;-80
2021/04/24 09:38:49;;;;;;;3.50;2.45;;;;;;;8.48;43.81;102209.78;5034982;28;20471;-81
2021/04/24 09:41:31;;;;;;;10.35;3.17;;;;;;;8.41;46.72;102206.53;5034812;28;20042;-80
2021/04/24 09:44:13;;;;;;;6.63;2.70;;;;;;;8.59;47.23;102206.47;5021019;28;20061;-81
2021/04/24 09:46:47;;;;;;;6.45;3.30;;;;;;;9.03;49.84;102211.09;5037784;28;20049;-80
2021/04/24 09:49:15;;;;;;;7.75;2.85;;;;;;;9.39;46.08;102203.53;5036232;28;20037;-80
2021/04/24 09:51:44;;;;;;;4.97;2.38;;;;;;;9.53;42.36;102196.50;5034755;28;20427;-80
2021/04/24 09:54:09;;;;;;;7.70;2.80;;;;;;;9.83;42.82;102204.50;5034129;28;20036;-80
2021/04/24 09:56:35;;;;;;;3.88;2.50;;;;;;;10.02;40.76;102202.38;5037173;28;20025;-83
2021/04/24 09:59:03;;;;;;;5.93;2.80;;;;;;;9.87;40.90;102203.31;5018723;28;20385;-81
2021/04/24 10:01:32;;;;;;;4.05;2.10;;;;;;;9.66;41.24;102206.38;5022056;28;20413;-81
2021/04/24 10:03:59;;;;;;;6.18;2.42;;;;;;;9.40;39.13;102207.97;5024169;28;20029;-82
2021/04/24 10:06:39;;;;;;;7.22;2.60;;;;;;;9.12;40.10;102207.84;5049861;28;20029;-80
2021/04/24 10:09:20;;;;;;;8.93;2.90;;;;;;;8.96;42.46;102198.03;5021609;28;20555;-81
2021/04/24 10:12:00;;;;;;;2.65;2.05;;;;;;;9.05;40.05;102209.19;5015960;28;20036;-81
2021/04/24 10:14:49;;;;;;;4.78;2.15;;;;;;;9.01;40.70;102208.50;5033676;28;20026;-81
2021/04/24 10:17:18;;;;;;;6.72;1.70;;;;;;;8.98;38.71;102206.84;5036012;28;20048;-81
2021/04/24 10:19:45;;;;;;;3.25;1.63;;;;;;;9.04;37.73;102211.00;5034652;28;20116;-82
2021/04/24 10:22:14;;;;;;;2.53;1.38;;;;;;;8.96;36.13;102210.59;5020298;28;20040;-81
2021/04/24 10:24:40;;;;;;;2.75;1.50;;;;;;;8.82;36.91;102203.34;5037501;28;20033;-81
2021/04/24 10:27:06;;;;;;;3.60;1.73;;;;;;;8.89;38.33;102207.41;5030749;28;20115;-81
2021/04/24 10:29:32;;;;;;;3.75;1.60;;;;;;;9.10;38.39;102204.44;5038020;28;20481;-81
2021/04/24 10:31:58;;;;;;;3.67;1.50;;;;;;;9.24;39.37;102203.59;5035914;28;20035;-81
2021/04/24 10:34:24;;;;;;;2.30;1.33;;;;;;;9.29;37.35;102207.72;5022257;28;20477;-81
2021/04/24 10:36:51;;;;;;;3.05;1.98;;;;;;;9.23;36.13;102215.28;5022469;28;20021;-81
2021/04/24 10:39:24;;;;;;;4.13;2.00;;;;;;;9.12;36.40;102202.50;5034633;28;20057;-81
2021/04/24 10:42:02;;;;;;;4.55;1.50;;;;;;;9.13;35.56;102205.09;5005262;28;20057;-81
2021/04/24 10:44:48;;;;;;;4.30;1.30;;;;;;;9.15;36.04;102210.38;5030120;28;20093;-81
2021/04/24 10:47:13;;;;;;;2.97;1.40;;;;;;;9.22;36.80;102210.88;5020406;28;20473;-81
2021/04/24 10:49:59;;;;;;;9.05;2.58;;;;;;;9.25;37.57;102202.66;5037525;28;20039;-81
2021/04/24 10:52:25;;;;;;;3.47;1.73;;;;;;;9.37;37.08;102205.47;5025089;28;20079;-80
2021/04/24 10:55:24;;;;;;;2.97;1.90;;;;;;;9.48;36.66;102202.13;5026344;28;20038;-81
2021/04/24 10:57:55;;;;;;;5.97;1.35;;;;;;;9.52;38.05;102209.06;5011650;28;20044;-81
2021/04/24 11:00:24;;;;;;;1.87;1.40;;;;;;;9.51;36.66;102201.94;5035979;28;20029;-81
2021/04/24 11:02:54;;;;;;;1.52;1.27;;;;;;;9.56;35.57;102199.84;5038160;28;20056;-81
2021/04/24 11:05:30;;;;;;;1.88;1.40;;;;;;;9.68;35.66;102197.38;5038362;28;20025;-81
2021/04/24 11:08:07;;;;;;;4.35;1.55;;;;;;;9.61;35.59;102194.16;5022465;28;20021;-81
2021/04/24 11:10:47;;;;;;;3.03;1.60;;;;;;;9.62;34.99;102203.97;5037098;28;20032;-81
2021/04/24 11:13:15;;;;;;;2.90;1.90;;;;;;;9.68;36.83;102184.81;5035127;28;20101;-80
2021/04/24 11:15:42;;;;;;;3.65;1.70;;;;;;;9.78;36.28;102194.00;5035950;28;20044;-80
2021/04/24 11:18:10;;;;;;;3.60;1.70;;;;;;;9.99;36.05;102196.34;5031518;28;20025;-81
2021/04/24 11:20:55;;;;;;;4.95;1.42;;;;;;;9.96;35.34;102201.91;5037401;28;20090;-80
2021/04/24 11:23:42;;;;;;;2.45;1.40;;;;;;;9.91;35.95;102199.47;5032782;28;20059;-81
2021/04/24 11:26:15;;;;;;;2.70;1.98;;;;;;;9.97;36.55;102200.94;5042717;28;20025;-81